Meridian — EI6085 — position and weather

sailwx.info

Track history (hours):
 
Tides and Currents Weather Stations Pressure Air Temp Water Temp Dewpoint Dewpoint Depression Visibility Wind Speed Wind Dir Waves Ship Positions

Meridian

Last reported at 2017-Aug-17 10:43 UTC. Time now 2017-Aug-17 13:37 UTC.
Position N 54°38' W 008°27'.

Length 12 m.

Type: Fishing. MMSI: 250107450.

Date/timePositionNaut miles runAvg speedWind from/ knotsBaromVisibWave heightAir tempDewpointWater temp
2017-Aug-17 10:43N 54°38' W 008°27'0 0.0
2017-Aug-17 10:28N 54°38' W 008°27'0 0.0
2017-Aug-16 11:52N 54°38' W 008°27'0 1.0
2017-Aug-16 11:26N 54°38' W 008°26'2 4.3
2017-Aug-16 10:59N 54°36' W 008°28'1 2.6
2017-Aug-16 10:25N 54°37' W 008°26'1 2.1
2017-Aug-16 09:59N 54°38' W 008°27'0 0.0
2017-Aug-16 09:26N 54°38' W 008°27'0 0.0
2017-Aug-16 08:59N 54°38' W 008°27'0 0.0
2017-Aug-16 08:29N 54°38' W 008°27'0 0.0
2017-Aug-16 07:58N 54°38' W 008°27'0 0.0
2017-Aug-14 15:26N 54°38' W 008°27'0 0.6
2017-Aug-14 14:52N 54°38' W 008°26'1 1.6
2017-Aug-14 14:30N 54°38' W 008°26'1 1.2
2017-Aug-14 14:00N 54°38' W 008°27'0 0.2
2017-Aug-14 13:30N 54°38' W 008°27'2 3.2
2017-Aug-14 12:56N 54°37' W 008°24'1 1.3
2017-Aug-14 12:25N 54°36' W 008°25'1 2.1
2017-Aug-14 11:58N 54°36' W 008°27'1 1.7
2017-Aug-14 11:30N 54°36' W 008°28'2 3.1
2017-Aug-14 10:52N 54°38' W 008°26'1 1.2
2017-Aug-14 10:12N 54°38' W 008°26'0 1.9
2017-Aug-14 09:59N 54°38' W 008°26'0 0.3
2017-Aug-14 09:27N 54°38' W 008°27'0 0.0
2017-Aug-14 08:57N 54°38' W 008°27'0 0.0
2017-Aug-14 08:31N 54°38' W 008°27'0 0.0
2017-Aug-14 07:58N 54°38' W 008°27'0 0.0
2017-Aug-12 16:44N 54°38' W 008°27'0 0.8
2017-Aug-12 16:30N 54°38' W 008°27'2 4.0
2017-Aug-12 16:00N 54°36' W 008°28'4 0.6
2017-Aug-12 09:39N 54°36' W 008°34'1 2.7
2017-Aug-12 09:09N 54°35' W 008°32'1 2.4
2017-Aug-12 08:50N 54°36' W 008°31'2 5.8
2017-Aug-12 08:29N 54°36' W 008°28'2 2.9
2017-Aug-12 07:58N 54°38' W 008°26'1 0.8
2017-Aug-12 07:20N 54°38' W 008°27'0 0.7
2017-Aug-12 07:00N 54°38' W 008°27'0 0.0
2017-Aug-11 18:00N 54°38' W 008°27'0 0.0
2017-Aug-11 10:05N 54°38' W 008°27'0 0.0
2017-Aug-11 09:59N 54°38' W 008°27'0 0.0
2017-Aug-11 09:29N 54°38' W 008°27'0 0.0
2017-Aug-09 09:42N 54°38' W 008°27'0 0.0
2017-Aug-09 09:27N 54°38' W 008°27'0 0.0
2017-Aug-09 08:32N 54°38' W 008°27'0 0.0
2017-Aug-09 08:29N 54°38' W 008°27'0 0.0
2017-Aug-09 07:53N 54°38' W 008°27'0 0.0
2017-Aug-09 07:29N 54°38' W 008°27'0 0.0
2017-Aug-09 06:53N 54°38' W 008°27'0 0.0
2017-Aug-09 06:26N 54°38' W 008°27'0 0.0
2017-Aug-09 05:56N 54°38' W 008°27'0 0.0
2017-Aug-09 05:26N 54°38' W 008°27'0 0.0
2017-Aug-09 04:59N 54°38' W 008°27'0 0.0
2017-Aug-09 04:29N 54°38' W 008°27'0 0.0
2017-Aug-09 03:59N 54°38' W 008°27'0 0.0
2017-Aug-09 03:29N 54°38' W 008°27'0 0.0
2017-Aug-09 02:59N 54°38' W 008°27'0 0.0
2017-Aug-09 02:29N 54°38' W 008°27'0 0.0
2017-Aug-09 01:56N 54°38' W 008°27'0 0.0
2017-Aug-09 01:29N 54°38' W 008°27'0 0.0
2017-Aug-09 00:56N 54°38' W 008°27'0 0.0
2017-Aug-09 00:29N 54°38' W 008°27'0 0.0
2017-Aug-08 23:59N 54°38' W 008°27'0 0.0
2017-Aug-08 23:29N 54°38' W 008°27'0 0.0
2017-Aug-08 22:56N 54°38' W 008°27'0 0.0
2017-Aug-08 22:26N 54°38' W 008°27'0 0.0
2017-Aug-08 21:59N 54°38' W 008°27'0 0.0
2017-Aug-08 21:29N 54°38' W 008°27'0 0.0
2017-Aug-08 20:59N 54°38' W 008°27'0 0.0
2017-Aug-08 20:26N 54°38' W 008°27'0 0.0
2017-Aug-08 19:59N 54°38' W 008°27'0 0.0
2017-Aug-08 19:26N 54°38' W 008°27'0 0.0
2017-Aug-08 18:59N 54°38' W 008°27'0 0.0
2017-Aug-08 18:29N 54°38' W 008°27'0 0.0
2017-Aug-08 17:59N 54°38' W 008°27'0 0.0
2017-Aug-08 17:29N 54°38' W 008°27'0 0.0
2017-Aug-08 16:59N 54°38' W 008°27'0 0.0
2017-Aug-08 16:29N 54°38' W 008°27'0 0.0
2017-Aug-08 15:56N 54°38' W 008°27'0 0.0
2017-Aug-08 15:29N 54°38' W 008°27'0 0.0
2017-Aug-08 14:59N 54°38' W 008°27'0 0.0
2017-Aug-08 14:29N 54°38' W 008°27'0 0.0
2017-Aug-08 13:59N 54°38' W 008°27'0 0.0
2017-Aug-08 13:29N 54°38' W 008°27'0 0.0
2017-Aug-08 12:59N 54°38' W 008°27'0 0.0
2017-Aug-08 12:29N 54°38' W 008°27'0 0.0
2017-Aug-08 11:59N 54°38' W 008°27'0 0.0
2017-Aug-08 11:26N 54°38' W 008°27'0 0.0
2017-Aug-08 10:59N 54°38' W 008°27'0 0.0
2017-Aug-08 10:29N 54°38' W 008°27'0 0.0
2017-Aug-08 09:59N 54°38' W 008°27'0 0.0
2017-Aug-07 15:35N 54°38' W 008°27'0 0.1
2017-Aug-07 15:29N 54°38' W 008°27'0 0.0
2017-Aug-07 15:01N 54°38' W 008°27'3 4.7
2017-Aug-07 14:26N 54°36' W 008°29'3 5.4
2017-Aug-07 13:57N 54°35' W 008°34'1 1.4
2017-Aug-07 13:30N 54°36' W 008°35'1 0.8
2017-Aug-07 12:39N 54°36' W 008°36'0 0.1
2017-Aug-07 12:23N 54°36' W 008°36'0 0.2
2017-Aug-07 10:52N 54°36' W 008°35'  
Track history (hours):
 
Tides and Currents Weather Stations Pressure Air Temp Water Temp Dewpoint Dewpoint Depression Visibility Wind Speed Wind Dir Waves Ship Positions

Meridian

Last reported at 2017-Aug-17 10:43 UTC. Time now 2017-Aug-17 13:37 UTC.
Position N 54°38' W 008°27'.

Length 12 m.

Type: Fishing. MMSI: 250107450.

Date/timePositionNaut miles runAvg speedWind from/ knotsBaromVisibWave heightAir tempDewpointWater temp
2017-Aug-17 10:43N 54°38' W 008°27'0 0.0
2017-Aug-17 10:28N 54°38' W 008°27'0 0.0
2017-Aug-16 11:52N 54°38' W 008°27'0 1.0
2017-Aug-16 11:26N 54°38' W 008°26'2 4.3
2017-Aug-16 10:59N 54°36' W 008°28'1 2.6
2017-Aug-16 10:25N 54°37' W 008°26'1 2.1
2017-Aug-16 09:59N 54°38' W 008°27'0 0.0
2017-Aug-16 09:26N 54°38' W 008°27'0 0.0
2017-Aug-16 08:59N 54°38' W 008°27'0 0.0
2017-Aug-16 08:29N 54°38' W 008°27'0 0.0
2017-Aug-16 07:58N 54°38' W 008°27'0 0.0
2017-Aug-14 15:26N 54°38' W 008°27'0 0.6
2017-Aug-14 14:52N 54°38' W 008°26'1 1.6
2017-Aug-14 14:30N 54°38' W 008°26'1 1.2
2017-Aug-14 14:00N 54°38' W 008°27'0 0.2
2017-Aug-14 13:30N 54°38' W 008°27'2 3.2
2017-Aug-14 12:56N 54°37' W 008°24'1 1.3
2017-Aug-14 12:25N 54°36' W 008°25'1 2.1
2017-Aug-14 11:58N 54°36' W 008°27'1 1.7
2017-Aug-14 11:30N 54°36' W 008°28'2 3.1
2017-Aug-14 10:52N 54°38' W 008°26'1 1.2
2017-Aug-14 10:12N 54°38' W 008°26'0 1.9
2017-Aug-14 09:59N 54°38' W 008°26'0 0.3
2017-Aug-14 09:27N 54°38' W 008°27'0 0.0
2017-Aug-14 08:57N 54°38' W 008°27'0 0.0
2017-Aug-14 08:31N 54°38' W 008°27'0 0.0
2017-Aug-14 07:58N 54°38' W 008°27'0 0.0
2017-Aug-12 16:44N 54°38' W 008°27'0 0.8
2017-Aug-12 16:30N 54°38' W 008°27'2 4.0
2017-Aug-12 16:00N 54°36' W 008°28'4 0.6
2017-Aug-12 09:39N 54°36' W 008°34'1 2.7
2017-Aug-12 09:09N 54°35' W 008°32'1 2.4
2017-Aug-12 08:50N 54°36' W 008°31'2 5.8
2017-Aug-12 08:29N 54°36' W 008°28'2 2.9
2017-Aug-12 07:58N 54°38' W 008°26'1 0.8
2017-Aug-12 07:20N 54°38' W 008°27'0 0.7
2017-Aug-12 07:00N 54°38' W 008°27'0 0.0
2017-Aug-11 18:00N 54°38' W 008°27'0 0.0
2017-Aug-11 10:05N 54°38' W 008°27'0 0.0
2017-Aug-11 09:59N 54°38' W 008°27'0 0.0
2017-Aug-11 09:29N 54°38' W 008°27'0 0.0
2017-Aug-09 09:42N 54°38' W 008°27'0 0.0
2017-Aug-09 09:27N 54°38' W 008°27'0 0.0
2017-Aug-09 08:32N 54°38' W 008°27'0 0.0
2017-Aug-09 08:29N 54°38' W 008°27'0 0.0
2017-Aug-09 07:53N 54°38' W 008°27'0 0.0
2017-Aug-09 07:29N 54°38' W 008°27'0 0.0
2017-Aug-09 06:53N 54°38' W 008°27'0 0.0
2017-Aug-09 06:26N 54°38' W 008°27'0 0.0
2017-Aug-09 05:56N 54°38' W 008°27'0 0.0
2017-Aug-09 05:26N 54°38' W 008°27'0 0.0
2017-Aug-09 04:59N 54°38' W 008°27'0 0.0
2017-Aug-09 04:29N 54°38' W 008°27'0 0.0
2017-Aug-09 03:59N 54°38' W 008°27'0 0.0
2017-Aug-09 03:29N 54°38' W 008°27'0 0.0
2017-Aug-09 02:59N 54°38' W 008°27'0 0.0
2017-Aug-09 02:29N 54°38' W 008°27'0 0.0
2017-Aug-09 01:56N 54°38' W 008°27'0 0.0
2017-Aug-09 01:29N 54°38' W 008°27'0 0.0
2017-Aug-09 00:56N 54°38' W 008°27'0 0.0
2017-Aug-09 00:29N 54°38' W 008°27'0 0.0
2017-Aug-08 23:59N 54°38' W 008°27'0 0.0
2017-Aug-08 23:29N 54°38' W 008°27'0 0.0
2017-Aug-08 22:56N 54°38' W 008°27'0 0.0
2017-Aug-08 22:26N 54°38' W 008°27'0 0.0
2017-Aug-08 21:59N 54°38' W 008°27'0 0.0
2017-Aug-08 21:29N 54°38' W 008°27'0 0.0
2017-Aug-08 20:59N 54°38' W 008°27'0 0.0
2017-Aug-08 20:26N 54°38' W 008°27'0 0.0
2017-Aug-08 19:59N 54°38' W 008°27'0 0.0
2017-Aug-08 19:26N 54°38' W 008°27'0 0.0
2017-Aug-08 18:59N 54°38' W 008°27'0 0.0
2017-Aug-08 18:29N 54°38' W 008°27'0 0.0
2017-Aug-08 17:59N 54°38' W 008°27'0 0.0
2017-Aug-08 17:29N 54°38' W 008°27'0 0.0
2017-Aug-08 16:59N 54°38' W 008°27'0 0.0
2017-Aug-08 16:29N 54°38' W 008°27'0 0.0
2017-Aug-08 15:56N 54°38' W 008°27'0 0.0
2017-Aug-08 15:29N 54°38' W 008°27'0 0.0
2017-Aug-08 14:59N 54°38' W 008°27'0 0.0
2017-Aug-08 14:29N 54°38' W 008°27'0 0.0
2017-Aug-08 13:59N 54°38' W 008°27'0 0.0
2017-Aug-08 13:29N 54°38' W 008°27'0 0.0
2017-Aug-08 12:59N 54°38' W 008°27'0 0.0
2017-Aug-08 12:29N 54°38' W 008°27'0 0.0
2017-Aug-08 11:59N 54°38' W 008°27'0 0.0
2017-Aug-08 11:26N 54°38' W 008°27'0 0.0
2017-Aug-08 10:59N 54°38' W 008°27'0 0.0
2017-Aug-08 10:29N 54°38' W 008°27'0 0.0
2017-Aug-08 09:59N 54°38' W 008°27'0 0.0
2017-Aug-07 15:35N 54°38' W 008°27'0 0.1
2017-Aug-07 15:29N 54°38' W 008°27'0 0.0
2017-Aug-07 15:01N 54°38' W 008°27'3 4.7
2017-Aug-07 14:26N 54°36' W 008°29'3 5.4
2017-Aug-07 13:57N 54°35' W 008°34'1 1.4
2017-Aug-07 13:30N 54°36' W 008°35'1 0.8
2017-Aug-07 12:39N 54°36' W 008°36'0 0.1
2017-Aug-07 12:23N 54°36' W 008°36'0 0.2
2017-Aug-07 10:52N 54°36' W 008°35'  

Dump ship's entire track history